Valliant, Oklahoma
Current Conditions -  °F | °C
As of 11:15 AM on Friday 19 Dec 2014 (Local Time) from K4O4 Reporting Station
Overcast Overcast  
Wind Chill: 39°   Ceiling: 900
Heat Index: 43°   Visibility: 10mi
Dew Point: 41°   Wind: 6mph
Humidity: 93%   Direction: 60°ENE
Pressure: 30.22"   Gusts: NA
Location:  34°N, 95.09°W
Report Text: K4O4 191715Z AUTO 06005KT 10SM OVC009 06/05 A3022 RMK AO2
Loading
Personal Weather Stations






























Interactive Weather Map New forecast layout! Learn more

10-Day Weather Forecast

Advertisements
Track Severe Weather on mobile